Time;durP1;ratioP1;P1;durP2;ratioP2;P2;SDS_P1;SDS_P2;PMS_P1;PMS_P2;Temp;Humidity;BMP_temperature;BMP_pressure;BME280_temperature;BME280_humidity;BME280_pressure;Samples;Min_cycle;Max_cycle;Signal;HPM_P1;HPM_P2
2022/10/04 00:01:19;;;;;;;2.25;1.13;;;18.50;81.80;;;;;;5077128;28;20027;-70
2022/10/04 00:03:50;;;;;;;1.83;0.90;;;18.50;82.00;;;;;;5075980;28;20390;-70
2022/10/04 00:06:20;;;;;;;2.47;1.13;;;18.50;82.00;;;;;;5092721;28;20398;-70
2022/10/04 00:08:52;;;;;;;2.95;1.20;;;18.50;82.00;;;;;;5093937;28;20504;-70
2022/10/04 00:11:28;;;;;;;1.70;1.20;;;18.50;82.00;;;;;;5076271;28;20501;-70
2022/10/04 00:14:03;;;;;;;1.98;1.20;;;18.50;82.00;;;;;;5092514;28;20069;-70
2022/10/04 00:16:31;;;;;;;2.65;0.90;;;18.50;82.10;;;;;;5094726;28;20028;-70
2022/10/04 00:19:13;;;;;;;3.38;1.17;;;18.50;82.10;;;;;;5096043;28;20031;-70
2022/10/04 00:21:55;;;;;;;9.20;1.10;;;18.50;82.20;;;;;;5113815;28;20501;-70
2022/10/04 00:24:30;;;;;;;3.55;1.30;;;18.50;82.20;;;;;;5113837;28;20102;-70
2022/10/04 00:27:20;;;;;;;2.17;1.20;;;18.60;82.30;;;;;;5112732;28;20023;-70
2022/10/04 00:30:01;;;;;;;3.33;1.00;;;18.60;82.30;;;;;;5112632;28;20117;-70
2022/10/04 00:32:39;;;;;;;2.08;1.00;;;18.60;82.30;;;;;;5112816;28;20030;-70
2022/10/04 00:35:23;;;;;;;1.60;0.85;;;18.60;82.30;;;;;;5113674;28;20036;-70
2022/10/04 00:38:12;;;;;;;7.53;1.40;;;18.60;82.20;;;;;;5113680;28;20052;-70
2022/10/04 00:41:02;;;;;;;1.55;1.00;;;18.60;82.20;;;;;;5112315;28;20477;-70
2022/10/04 00:43:42;;;;;;;2.40;0.95;;;18.60;82.10;;;;;;5112430;28;20024;-70
2022/10/04 00:46:17;;;;;;;3.13;1.00;;;18.60;82.10;;;;;;5095935;28;20100;-70
2022/10/04 00:48:52;;;;;;;3.22;1.05;;;18.60;82.10;;;;;;5101503;28;20024;-70
2022/10/04 00:51:27;;;;;;;3.40;1.00;;;18.60;82.10;;;;;;5091632;28;20056;-70
2022/10/04 00:54:02;;;;;;;2.13;0.90;;;18.60;82.10;;;;;;5091681;28;20081;-70
2022/10/04 00:56:44;;;;;;;1.45;0.93;;;18.60;82.00;;;;;;5092805;28;20028;-70
2022/10/04 00:59:16;;;;;;;3.15;1.17;;;18.60;81.90;;;;;;5091935;28;20031;-70
2022/10/04 01:01:43;;;;;;;3.15;1.08;;;18.60;81.90;;;;;;5091714;28;20020;-70
2022/10/04 01:04:46;;;;;;;1.98;0.82;;;18.60;81.90;;;;;;5092906;28;20023;-70
2022/10/04 01:07:13;;;;;;;4.47;0.95;;;18.60;81.90;;;;;;5090557;28;20415;-70
2022/10/04 01:09:47;;;;;;;2.50;0.88;;;18.60;81.90;;;;;;5074773;28;20063;-70
2022/10/04 01:12:35;;;;;;;3.63;1.38;;;18.60;82.00;;;;;;5075518;28;20066;-70
2022/10/04 01:15:13;;;;;;;2.92;0.90;;;18.60;82.00;;;;;;5092512;28;20525;-70
2022/10/04 01:17:39;;;;;;;4.65;1.13;;;18.60;82.00;;;;;;5103500;28;20023;-70
2022/10/04 01:20:29;;;;;;;2.60;1.20;;;18.60;82.00;;;;;;5095075;28;20056;-70
2022/10/04 01:22:54;;;;;;;2.72;0.95;;;18.60;82.00;;;;;;5111800;28;20068;-70
2022/10/04 01:25:46;;;;;;;2.55;1.15;;;18.60;82.00;;;;;;5111771;28;20020;-70
2022/10/04 01:28:12;;;;;;;7.03;1.00;;;18.60;81.90;;;;;;5111898;28;20020;-70
2022/10/04 01:30:38;;;;;;;2.55;1.20;;;18.60;82.00;;;;;;5111654;28;20020;-69
2022/10/04 01:33:05;;;;;;;2.75;1.20;;;18.60;82.00;;;;;;5111747;28;20093;-70
2022/10/04 01:35:32;;;;;;;2.33;1.20;;;18.60;82.00;;;;;;5111530;28;20019;-70
2022/10/04 01:37:58;;;;;;;2.55;0.90;;;18.60;82.00;;;;;;5086049;28;20024;-70
2022/10/04 01:40:24;;;;;;;6.78;1.08;;;18.60;82.00;;;;;;5080156;28;20020;-70
2022/10/04 01:42:51;;;;;;;7.97;0.90;;;18.60;81.90;;;;;;5070460;28;20031;-70
2022/10/04 01:45:33;;;;;;;3.05;0.98;;;18.70;82.00;;;;;;5070334;28;20021;-70
2022/10/04 01:48:00;;;;;;;4.43;0.90;;;18.60;81.90;;;;;;5074953;28;20028;-70
2022/10/04 01:50:44;;;;;;;3.35;0.90;;;18.60;81.90;;;;;;5073941;28;20538;-70
2022/10/04 01:53:31;;;;;;;1.42;1.02;;;18.60;81.90;;;;;;5078337;28;20047;-70
2022/10/04 01:56:06;;;;;;;2.28;1.20;;;18.60;82.00;;;;;;5084573;28;20104;-70
2022/10/04 01:58:41;;;;;;;1.73;0.93;;;18.60;81.90;;;;;;5094907;28;20016;-70
2022/10/04 02:01:15;;;;;;;7.70;1.10;;;18.60;82.00;;;;;;5078625;28;20099;-70
2022/10/04 02:03:49;;;;;;;4.40;1.20;;;18.60;81.90;;;;;;5095367;28;20024;-70
2022/10/04 02:06:14;;;;;;;2.70;1.17;;;18.60;81.90;;;;;;5078835;28;20115;-70
2022/10/04 02:08:48;;;;;;;4.80;1.08;;;18.60;82.00;;;;;;5094964;28;20463;-70
2022/10/04 02:11:18;;;;;;;3.97;1.17;;;18.60;81.90;;;;;;5078705;28;20440;-70
2022/10/04 02:13:44;;;;;;;1.77;0.98;;;18.60;82.00;;;;;;5078341;28;20477;-70
2022/10/04 02:16:10;;;;;;;1.42;0.98;;;18.70;82.00;;;;;;5094994;28;20486;-70
2022/10/04 02:18:37;;;;;;;1.88;1.00;;;18.60;81.90;;;;;;5097946;28;20405;-70
2022/10/04 02:21:04;;;;;;;1.65;0.95;;;18.60;82.00;;;;;;5115007;28;20020;-70
2022/10/04 02:23:29;;;;;;;1.50;1.00;;;18.60;81.90;;;;;;5116345;28;20413;-70
2022/10/04 02:25:55;;;;;;;3.63;0.90;;;18.60;82.00;;;;;;5098040;28;20038;-70
2022/10/04 02:28:21;;;;;;;1.73;1.20;;;18.60;82.00;;;;;;5116259;28;20046;-70
2022/10/04 02:32:56;;;;;;;2.55;1.10;;;18.60;82.00;;;;;;5115121;28;20059;-70
2022/10/04 02:33:38;;;;;;;2.22;1.10;;;18.70;82.00;;;;;;5100838;28;20474;-70
2022/10/04 02:36:07;;;;;;;2.78;1.30;;;18.60;82.00;;;;;;5097927;28;20245;-70
2022/10/04 02:38:34;;;;;;;1.10;1.00;;;18.60;82.00;;;;;;5098221;28;20027;-70
2022/10/04 02:41:34;;;;;;;2.83;1.10;;;18.60;82.00;;;;;;5098039;28;20024;-70
2022/10/04 02:44:19;;;;;;;2.05;1.20;;;18.70;82.00;;;;;;5099601;28;20019;-70
2022/10/04 02:46:57;;;;;;;3.00;1.30;;;18.60;82.00;;;;;;5094031;28;20036;-70
2022/10/04 02:49:33;;;;;;;3.17;1.00;;;18.60;82.00;;;;;;5093478;28;20505;-70
2022/10/04 02:52:07;;;;;;;1.52;1.02;;;18.60;82.00;;;;;;5092691;28;20044;-70
2022/10/04 02:54:44;;;;;;;3.80;1.30;;;18.60;82.00;;;;;;5093810;28;20034;-70
2022/10/04 02:57:20;;;;;;;3.67;0.90;;;18.60;82.00;;;;;;5093016;28;20031;-70
2022/10/04 02:59:46;;;;;;;5.55;1.00;;;18.60;81.90;;;;;;5093132;28;20020;-70
2022/10/04 03:02:22;;;;;;;1.65;1.02;;;18.60;82.00;;;;;;5077136;28;20027;-70
2022/10/04 03:04:47;;;;;;;3.25;0.95;;;18.60;81.90;;;;;;5093723;28;20470;-70
2022/10/04 03:07:13;;;;;;;4.18;1.27;;;18.60;82.00;;;;;;5093574;28;20028;-70
2022/10/04 03:09:39;;;;;;;1.88;1.20;;;18.60;82.00;;;;;;5093360;28;20111;-70
2022/10/04 03:12:04;;;;;;;4.95;1.00;;;18.60;82.00;;;;;;5095238;28;20092;-70
2022/10/04 03:14:30;;;;;;;2.85;1.05;;;18.60;82.00;;;;;;5093737;28;20081;-70
2022/10/04 03:16:59;;;;;;;3.50;0.95;;;18.60;82.00;;;;;;5099798;28;20024;-70
2022/10/04 03:19:25;;;;;;;2.35;0.95;;;18.60;82.30;;;;;;5097521;28;20054;-70
2022/10/04 03:21:52;;;;;;;2.25;1.00;;;18.60;82.00;;;;;;5113906;28;20028;-70
2022/10/04 03:24:23;;;;;;;2.47;0.88;;;18.60;82.00;;;;;;5114104;28;20047;-70
2022/10/04 03:26:56;;;;;;;1.33;0.90;;;18.60;82.10;;;;;;5097568;28;20031;-70
2022/10/04 03:29:24;;;;;;;;;;;18.60;82.00;;;;;;5097747;28;20022;-70
2022/10/04 03:31:51;;;;;;;2.53;1.05;;;18.60;82.00;;;;;;5113597;28;19910;-70
2022/10/04 03:34:24;;;;;;;2.85;1.20;;;18.60;82.00;;;;;;5096952;28;20019;-70
2022/10/04 03:36:52;;;;;;;1.50;1.40;;;18.60;82.00;;;;;;5115087;28;20024;-70
2022/10/04 03:39:29;;;;;;;3.20;1.20;;;18.60;82.10;;;;;;5097019;28;20038;-70
2022/10/04 03:41:56;;;;;;;2.42;0.93;;;18.60;82.10;;;;;;5113650;28;20485;-70
2022/10/04 03:44:22;;;;;;;1.63;1.13;;;18.60;82.20;;;;;;5096768;28;20016;-70
2022/10/04 03:46:47;;;;;;;3.58;0.90;;;18.60;82.10;;;;;;5096170;28;20073;-70
2022/10/04 03:49:22;;;;;;;2.10;0.98;;;18.60;82.20;;;;;;5081334;28;20030;-70
2022/10/04 03:51:48;;;;;;;1.85;0.90;;;18.60;82.50;;;;;;5077022;28;20040;-70
2022/10/04 03:54:16;;;;;;;3.15;1.08;;;18.60;82.10;;;;;;5073535;28;20035;-70
2022/10/04 03:56:42;;;;;;;1.92;0.98;;;18.60;82.20;;;;;;5085111;28;20754;-70
2022/10/04 03:59:09;;;;;;;1.63;1.10;;;18.60;82.20;;;;;;5075959;28;20028;-70
2022/10/04 04:01:40;;;;;;;3.95;1.08;;;18.60;82.20;;;;;;5076592;28;20036;-70
2022/10/04 04:04:30;;;;;;;1.63;1.17;;;18.60;82.20;;;;;;5093439;28;20493;-70
2022/10/04 04:07:23;;;;;;;1.35;0.93;;;18.60;82.20;;;;;;5093193;28;20112;-70
2022/10/04 04:09:55;;;;;;;2.80;0.93;;;18.60;82.20;;;;;;5079259;28;20016;-70
2022/10/04 04:12:34;;;;;;;1.60;0.77;;;18.60;82.20;;;;;;5093366;28;20070;-70
2022/10/04 04:15:00;;;;;;;2.20;0.80;;;18.60;82.30;;;;;;5093474;28;20036;-70
2022/10/04 04:17:28;;;;;;;2.40;0.80;;;18.60;82.20;;;;;;5102999;28;20026;-70
2022/10/04 04:19:56;;;;;;;4.32;1.23;;;18.60;82.20;;;;;;5114632;28;20019;-70
2022/10/04 04:22:22;;;;;;;2.13;1.08;;;18.60;82.20;;;;;;5096759;28;20026;-70
2022/10/04 04:24:49;;;;;;;3.08;1.30;;;18.60;82.20;;;;;;5113377;28;20107;-70
2022/10/04 04:27:15;;;;;;;1.95;0.85;;;18.60;82.30;;;;;;5113021;28;20068;-70
2022/10/04 04:29:53;;;;;;;2.67;0.90;;;18.60;82.20;;;;;;5113132;28;20023;-70
2022/10/04 04:32:30;;;;;;;3.05;1.00;;;18.60;82.20;;;;;;5114396;28;20099;-70
2022/10/04 04:35:05;;;;;;;2.53;1.10;;;18.60;82.20;;;;;;5078169;28;20028;-70
2022/10/04 04:37:33;;;;;;;4.32;1.02;;;18.60;82.20;;;;;;5072588;28;20021;-70
2022/10/04 04:40:09;;;;;;;2.40;0.85;;;18.60;82.20;;;;;;5073475;28;20025;-70
2022/10/04 04:42:36;;;;;;;1.70;0.90;;;18.60;82.20;;;;;;5072431;28;20042;-70
2022/10/04 04:45:22;;;;;;;2.33;1.10;;;18.60;82.20;;;;;;5071918;28;20047;-70
2022/10/04 04:47:52;;;;;;;3.95;1.02;;;18.60;82.10;;;;;;5078232;28;20103;-70
2022/10/04 04:50:32;;;;;;;2.05;0.80;;;18.60;82.10;;;;;;5112871;28;20058;-70
2022/10/04 04:53:08;;;;;;;1.85;1.10;;;18.60;82.10;;;;;;5095986;28;20536;-70
2022/10/04 04:55:39;;;;;;;2.30;0.77;;;18.60;82.10;;;;;;5112810;28;20023;-70
2022/10/04 04:58:06;;;;;;;1.02;0.90;;;18.60;82.10;;;;;;5112838;28;20505;-70
2022/10/04 05:00:34;;;;;;;1.33;0.95;;;18.60;82.10;;;;;;5057849;28;20025;-70
2022/10/04 05:03:01;;;;;;;4.75;1.20;;;18.60;82.10;;;;;;5072032;28;20024;-70
2022/10/04 05:05:29;;;;;;;2.17;1.00;;;18.60;82.10;;;;;;5072059;28;20035;-70
2022/10/04 05:08:19;;;;;;;3.05;0.90;;;18.60;82.10;;;;;;5071861;28;20044;-70
2022/10/04 05:10:57;;;;;;;3.67;1.00;;;18.60;82.00;;;;;;5071257;28;20036;-70
2022/10/04 05:13:27;;;;;;;1.35;0.90;;;18.60;82.10;;;;;;5072091;28;20028;-70
2022/10/04 05:15:53;;;;;;;4.97;0.90;;;18.60;82.10;;;;;;5071666;28;20039;-70
2022/10/04 05:18:37;;;;;;;2.67;1.25;;;18.60;82.20;;;;;;5106864;28;20020;-70
2022/10/04 05:21:42;;;;;;;6.63;1.30;;;18.60;82.00;;;;;;5113692;28;20047;-70
2022/10/04 05:24:14;;;;;;;1.00;0.80;;;18.60;82.20;;;;;;5039048;28;20025;-70
2022/10/04 05:26:39;;;;;;;5.95;0.85;;;18.60;82.10;;;;;;5033711;28;20079;-70
2022/10/04 05:29:16;;;;;;;3.80;1.08;;;18.60;82.20;;;;;;5033913;28;20025;-70
2022/10/04 05:31:47;;;;;;;1.42;0.80;;;18.60;82.10;;;;;;5024047;28;20041;-70
2022/10/04 05:34:26;;;;;;;2.75;1.00;;;18.60;82.20;;;;;;5030731;28;20405;-70
2022/10/04 05:36:58;;;;;;;1.00;0.93;;;18.60;82.20;;;;;;4998101;28;20029;-70
2022/10/04 05:39:37;;;;;;;3.80;1.10;;;18.60;82.20;;;;;;4998618;28;20508;-70
2022/10/04 05:42:25;;;;;;;1.67;0.90;;;18.60;82.20;;;;;;4999470;28;20496;-70
2022/10/04 05:44:55;;;;;;;1.15;0.93;;;18.60;82.10;;;;;;5014311;28;20212;-70
2022/10/04 05:47:23;;;;;;;1.42;0.80;;;18.60;82.20;;;;;;4997656;28;20029;-70
2022/10/04 05:49:54;;;;;;;3.05;1.02;;;18.60;82.10;;;;;;4985748;28;20030;-70
2022/10/04 05:52:46;;;;;;;1.27;0.90;;;18.60;82.20;;;;;;4981305;28;20148;-70
2022/10/04 05:55:11;;;;;;;2.83;1.00;;;18.60;82.20;;;;;;5024667;28;20034;-70
2022/10/04 05:58:09;;;;;;;5.22;1.02;;;18.60;82.20;;;;;;5039560;28;20495;-70
2022/10/04 06:01:11;;;;;;;3.90;0.82;;;18.60;82.10;;;;;;5071570;28;20025;-70
2022/10/04 06:03:48;;;;;;;1.45;1.00;;;18.60;82.10;;;;;;5070069;28;20021;-70
2022/10/04 06:06:35;;;;;;;3.22;1.02;;;18.60;82.00;;;;;;5068401;28;20368;-70
2022/10/04 06:09:32;;;;;;;3.42;1.15;;;18.60;82.10;;;;;;5075664;28;20031;-70
2022/10/04 06:12:05;;;;;;;0.90;0.90;;;18.60;82.10;;;;;;5053684;28;20021;-70
2022/10/04 06:14:47;;;;;;;1.40;0.77;;;18.60;81.40;;;;;;5050716;28;20052;-70
2022/10/04 06:17:26;;;;;;;1.52;0.75;;;18.60;80.50;;;;;;5068771;28;20032;-69
2022/10/04 06:20:01;;;;;;;1.60;0.95;;;18.60;80.80;;;;;;5069750;28;20053;-69
2022/10/04 06:22:27;;;;;;;1.67;0.82;;;18.60;80.00;;;;;;5071384;28;20021;-69
2022/10/04 06:25:06;;;;;;;1.70;0.80;;;18.60;79.90;;;;;;5069298;28;20365;-70
2022/10/04 06:27:52;;;;;;;1.40;0.77;;;18.60;79.90;;;;;;5055127;28;20415;-70
2022/10/04 06:30:19;;;;;;;2.70;0.70;;;18.50;79.90;;;;;;5068774;28;20012;-71
2022/10/04 06:33:18;;;;;;;2.08;0.90;;;18.50;79.70;;;;;;5071785;28;20009;-71
2022/10/04 06:36:09;;;;;;;1.15;1.05;;;18.50;79.70;;;;;;5069219;28;20017;-70
2022/10/04 06:38:34;;;;;;;1.83;0.75;;;18.50;79.50;;;;;;5075960;28;20028;-70
2022/10/04 06:41:24;;;;;;;0.77;0.70;;;18.50;79.70;;;;;;5073343;28;20024;-71
2022/10/04 06:44:11;;;;;;;2.00;1.00;;;18.50;79.70;;;;;;5075633;28;20017;-70
2022/10/04 06:46:41;;;;;;;1.88;0.73;;;18.50;79.80;;;;;;5074698;28;20025;-71
2022/10/04 06:49:31;;;;;;;0.82;0.80;;;18.50;79.80;;;;;;5074084;28;20033;-70
2022/10/04 06:52:22;;;;;;;2.05;0.70;;;18.50;79.80;;;;;;5077164;28;20043;-70
2022/10/04 06:55:02;;;;;;;5.95;1.13;;;18.50;79.80;;;;;;5074585;28;20031;-70
2022/10/04 06:57:31;;;;;;;23.40;4.60;;;18.50;79.80;;;;;;5072667;28;20437;-71
2022/10/04 07:00:08;;;;;;;24.50;3.33;;;18.50;80.10;;;;;;5073424;28;20037;-71
2022/10/04 07:02:39;;;;;;;31.30;3.88;;;18.50;80.40;;;;;;5072455;28;20457;-71
2022/10/04 07:05:11;;;;;;;22.65;3.78;;;18.50;80.60;;;;;;5072749;28;20108;-71
2022/10/04 07:07:38;;;;;;;22.83;4.43;;;18.50;80.70;;;;;;5072908;28;20064;-71
2022/10/04 07:10:22;;;;;;;32.38;4.22;;;18.50;80.90;;;;;;5072422;28;20025;-71
2022/10/04 07:12:59;;;;;;;27.75;4.35;;;18.50;80.90;;;;;;5091690;28;20032;-71
2022/10/04 07:15:27;;;;;;;30.00;5.20;;;18.50;81.00;;;;;;5111157;28;20032;-71
2022/10/04 07:17:53;;;;;;;27.60;4.68;;;18.50;81.00;;;;;;5094738;28;20019;-71
2022/10/04 07:20:31;;;;;;;30.08;4.28;;;18.50;81.10;;;;;;5098447;28;20015;-71
2022/10/04 07:23:27;;;;;;;30.75;4.18;;;18.50;81.10;;;;;;5114013;28;20092;-71
2022/10/04 07:25:57;;;;;;;23.30;4.97;;;18.50;81.10;;;;;;5109381;28;20536;-71
2022/10/04 07:31:24;;;;;;;26.38;4.20;;;18.50;81.10;;;;;;5079561;28;20508;-71
2022/10/04 07:33:57;;;;;;;21.15;4.45;;;18.50;81.10;;;;;;5093419;28;20028;-70
2022/10/04 07:36:28;;;;;;;28.17;4.45;;;18.50;81.00;;;;;;5077384;28;20056;-70
2022/10/04 07:39:16;;;;;;;19.23;4.10;;;18.50;81.00;;;;;;5076454;28;20016;-71
2022/10/04 07:42:13;;;;;;;22.75;5.05;;;18.50;80.90;;;;;;5093296;28;20759;-71
2022/10/04 07:44:43;;;;;;;20.38;4.28;;;18.50;80.90;;;;;;5093292;28;20091;-70
2022/10/04 07:47:18;;;;;;;22.02;4.45;;;18.50;80.80;;;;;;5091683;28;20016;-70
2022/10/04 07:49:44;;;;;;;24.05;4.25;;;18.50;80.70;;;;;;5076355;28;20141;-70
2022/10/04 07:52:22;;;;;;;14.60;3.72;;;18.50;80.70;;;;;;5075899;28;20118;-71
2022/10/04 07:54:57;;;;;;;14.10;3.15;;;18.50;80.60;;;;;;5094057;28;20070;-70
2022/10/04 07:57:38;;;;;;;19.30;3.97;;;18.50;80.70;;;;;;5094115;28;20034;-71
2022/10/04 08:00:10;;;;;;;26.20;4.75;;;18.50;80.60;;;;;;5093097;28;20019;-71
2022/10/04 08:02:47;;;;;;;19.33;4.72;;;18.50;80.60;;;;;;5093005;28;20535;-70
2022/10/04 08:05:20;;;;;;;19.05;4.22;;;18.40;80.50;;;;;;5093988;28;20024;-71
2022/10/04 08:07:55;;;;;;;24.92;4.75;;;18.50;80.60;;;;;;5092559;28;20099;-71
2022/10/04 08:10:35;;;;;;;14.07;3.95;;;18.50;80.50;;;;;;5092598;28;20026;-70
2022/10/04 08:13:27;;;;;;;21.77;4.20;;;18.50;80.40;;;;;;5092286;28;20024;-71
2022/10/04 08:15:52;;;;;;;17.17;3.67;;;18.40;80.40;;;;;;5092496;28;20099;-71
2022/10/04 08:18:46;;;;;;;17.75;4.45;;;18.40;80.40;;;;;;5092478;28;20075;-71
2022/10/04 08:21:37;;;;;;;15.35;3.95;;;18.40;80.30;;;;;;5106997;28;20068;-71
2022/10/04 08:24:33;;;;;;;17.98;3.70;;;18.40;80.30;;;;;;5096186;28;20027;-71
2022/10/04 08:29:41;;;;;;;13.90;4.28;;;18.40;80.30;;;;;;5112927;28;20028;-71
2022/10/04 08:30:29;;;;;;;15.27;3.50;;;18.40;80.30;;;;;;5112660;28;20058;-70
2022/10/04 08:33:05;;;;;;;17.27;3.85;;;18.40;80.30;;;;;;5095958;28;20043;-71
2022/10/04 08:35:47;;;;;;;12.90;3.75;;;18.40;80.20;;;;;;5112594;28;20024;-71
2022/10/04 08:38:41;;;;;;;13.27;3.55;;;18.40;80.20;;;;;;5096188;28;20111;-71
2022/10/04 08:41:23;;;;;;;14.95;3.75;;;18.40;80.10;;;;;;5113695;28;20023;-70
2022/10/04 08:44:26;;;;;;;14.75;3.60;;;18.40;80.20;;;;;;5113518;28;20110;-71
2022/10/04 08:47:02;;;;;;;16.35;3.58;;;18.40;80.00;;;;;;5112686;28;20054;-71
2022/10/04 08:50:01;;;;;;;10.63;3.22;;;18.40;80.00;;;;;;5113585;28;20543;-70
2022/10/04 08:52:43;;;;;;;14.07;3.75;;;18.40;80.00;;;;;;5113128;28;20043;-71
2022/10/04 08:55:39;;;;;;;14.35;3.33;;;18.40;80.00;;;;;;5112070;28;20100;-71
2022/10/04 08:58:14;;;;;;;12.10;3.58;;;18.40;80.00;;;;;;5113419;28;20015;-70
2022/10/04 09:00:52;;;;;;;13.68;3.90;;;18.40;80.00;;;;;;5112082;28;20390;-71
2022/10/04 09:03:52;;;;;;;14.73;3.63;;;18.40;80.00;;;;;;5113176;28;20020;-71
2022/10/04 09:06:59;;;;;;;12.13;3.70;;;18.40;79.90;;;;;;5113113;28;20023;-71
2022/10/04 09:10:01;;;;;;;12.30;3.15;;;18.40;79.90;;;;;;5112720;28;20184;-71
2022/10/04 09:12:49;;;;;;;9.52;2.83;;;18.40;79.90;;;;;;5104043;28;20069;-70
2022/10/04 09:15:37;;;;;;;11.35;3.10;;;18.40;79.90;;;;;;5091666;28;20081;-71
2022/10/04 09:18:11;;;;;;;11.25;2.97;;;18.40;79.90;;;;;;5092668;28;20028;-71
2022/10/04 09:20:59;;;;;;;11.85;3.10;;;18.40;80.00;;;;;;5100722;28;20431;-71
2022/10/04 09:23:36;;;;;;;10.57;2.92;;;18.40;79.90;;;;;;5112888;28;20478;-71
2022/10/04 09:26:23;;;;;;;13.52;3.17;;;18.40;80.00;;;;;;5113005;28;20031;-71
2022/10/04 09:29:25;;;;;;;9.77;3.05;;;18.30;80.00;;;;;;5113157;28;20032;-71
2022/10/04 09:32:00;;;;;;;11.52;2.60;;;18.30;80.00;;;;;;5112965;28;20024;-71
2022/10/04 09:34:43;;;;;;;11.90;3.03;;;18.40;80.00;;;;;;5112552;28;20076;-71
2022/10/04 09:37:23;;;;;;;13.20;3.35;;;18.30;80.00;;;;;;5111623;28;20031;-71
2022/10/04 09:40:26;;;;;;;12.77;3.58;;;18.30;79.90;;;;;;5111652;28;20153;-70
2022/10/04 09:43:05;;;;;;;10.88;3.05;;;18.30;80.00;;;;;;5098596;28;20031;-71
2022/10/04 09:45:50;;;;;;;10.10;2.80;;;18.30;80.00;;;;;;5111642;28;20020;-70
2022/10/04 09:48:23;;;;;;;10.85;2.95;;;18.30;80.00;;;;;;5112741;28;20031;-71
2022/10/04 09:51:14;;;;;;;7.50;2.85;;;18.30;80.00;;;;;;5111349;28;20048;-71
2022/10/04 09:53:58;;;;;;;11.13;3.50;;;18.30;79.90;;;;;;5112831;28;20061;-71
2022/10/04 09:57:04;;;;;;;11.82;2.83;;;18.30;80.00;;;;;;5112608;28;20073;-70
2022/10/04 09:59:52;;;;;;;9.88;3.40;;;18.30;80.00;;;;;;5111310;28;20072;-70
2022/10/04 10:02:37;;;;;;;10.63;3.38;;;18.30;79.90;;;;;;5112532;28;20023;-70
2022/10/04 10:05:30;;;;;;;10.27;3.05;;;18.30;80.00;;;;;;5112476;28;20504;-70
2022/10/04 10:08:14;;;;;;;5.90;2.35;;;18.30;79.90;;;;;;5111424;28;20016;-71
2022/10/04 10:14:00;;;;;;;6.95;2.95;;;18.30;79.90;;;;;;5098155;28;20026;-70
2022/10/04 10:16:59;;;;;;;8.48;2.97;;;18.30;80.00;;;;;;5094858;28;20102;-70
2022/10/04 10:19:40;;;;;;;7.40;2.50;;;18.30;80.00;;;;;;5094908;28;20027;-71
2022/10/04 10:22:34;;;;;;;7.95;2.65;;;18.30;80.10;;;;;;5075992;28;20024;-71
2022/10/04 10:25:00;;;;;;;8.30;2.70;;;18.30;80.10;;;;;;5075667;28;20016;-71
2022/10/04 10:27:57;;;;;;;11.45;3.03;;;18.30;80.00;;;;;;5075599;28;20441;-70
2022/10/04 10:30:26;;;;;;;6.65;2.60;;;18.30;80.00;;;;;;5074220;28;20009;-71
2022/10/04 10:33:42;;;;;;;5.53;2.45;;;18.30;80.00;;;;;;5075465;28;20086;-71
2022/10/04 10:36:27;;;;;;;7.03;3.03;;;18.30;80.00;;;;;;5033356;28;20080;-71
2022/10/04 10:39:11;;;;;;;8.98;2.78;;;18.30;80.00;;;;;;5033384;28;20599;-71
2022/10/04 10:42:04;;;;;;;10.35;2.47;;;18.30;80.00;;;;;;5033428;28;20075;-71
2022/10/04 10:44:42;;;;;;;6.80;2.22;;;18.30;80.00;;;;;;5033173;28;20112;-71
2022/10/04 10:47:30;;;;;;;4.93;2.42;;;18.30;80.00;;;;;;5033019;28;20013;-70
2022/10/04 10:50:24;;;;;;;8.32;2.53;;;18.30;80.10;;;;;;5033097;28;20029;-70
2022/10/04 10:52:58;;;;;;;5.60;2.15;;;18.30;80.00;;;;;;5032942;28;20056;-70
2022/10/04 10:55:53;;;;;;;5.53;2.28;;;18.30;80.00;;;;;;5032824;28;20170;-71
2022/10/04 10:58:52;;;;;;;6.15;2.42;;;18.30;80.00;;;;;;5032924;28;20030;-71
2022/10/04 11:01:42;;;;;;;7.47;2.63;;;18.30;80.00;;;;;;5016321;28;20040;-71
2022/10/04 11:04:26;;;;;;;7.93;2.50;;;18.30;80.10;;;;;;5032921;28;20507;-71
2022/10/04 11:07:17;;;;;;;8.00;2.70;;;18.30;80.10;;;;;;5032842;28;20052;-71
2022/10/04 11:10:01;;;;;;;3.85;2.20;;;18.30;80.10;;;;;;5032737;28;20029;-71
2022/10/04 11:12:48;;;;;;;7.07;2.08;;;18.30;80.10;;;;;;5078735;28;20044;-71
2022/10/04 11:15:56;;;;;;;7.68;2.55;;;18.20;80.00;;;;;;5094688;28;20498;-71
2022/10/04 11:18:44;;;;;;;5.95;2.42;;;18.30;80.10;;;;;;5092490;28;20051;-71
2022/10/04 11:21:34;;;;;;;7.00;2.92;;;18.30;80.10;;;;;;5108984;28;20015;-71
2022/10/04 11:24:34;;;;;;;4.90;2.10;;;18.30;80.10;;;;;;5115496;28;20048;-70
2022/10/04 11:27:30;;;;;;;5.28;2.22;;;18.30;80.10;;;;;;5115228;28;20073;-70
2022/10/04 11:30:22;;;;;;;4.97;1.80;;;18.20;80.00;;;;;;5115309;28;20107;-70
2022/10/04 11:33:06;;;;;;;5.55;2.22;;;18.20;80.10;;;;;;5114091;28;20020;-71
2022/10/04 11:35:38;;;;;;;6.00;2.22;;;18.30;80.10;;;;;;5114967;28;20031;-71
2022/10/04 11:38:07;;;;;;;4.78;1.98;;;18.30;80.10;;;;;;5114012;28;20063;-71
2022/10/04 11:40:49;;;;;;;4.85;2.38;;;18.20;80.00;;;;;;5113363;28;20024;-70
2022/10/04 11:43:23;;;;;;;5.82;2.45;;;18.30;80.10;;;;;;5113809;28;20020;-70
2022/10/04 11:46:32;;;;;;;5.45;1.90;;;18.30;80.10;;;;;;5113235;28;20415;-70
2022/10/04 11:49:02;;;;;;;6.97;2.42;;;18.20;80.00;;;;;;5052082;28;20060;-70
2022/10/04 11:52:03;;;;;;;4.10;2.00;;;18.20;80.00;;;;;;5035223;28;20080;-71
2022/10/04 11:55:09;;;;;;;6.03;2.13;;;18.30;80.10;;;;;;5038268;28;20403;-70
2022/10/04 11:57:51;;;;;;;7.60;2.13;;;18.20;80.10;;;;;;5034824;28;20033;-71
2022/10/04 12:00:21;;;;;;;4.60;2.00;;;18.20;80.10;;;;;;5036724;28;20420;-71
2022/10/04 12:03:13;;;;;;;4.78;2.33;;;18.30;80.20;;;;;;5035240;28;20025;-71
2022/10/04 12:06:02;;;;;;;5.53;2.40;;;18.30;80.10;;;;;;5051570;28;20517;-70
2022/10/04 12:08:45;;;;;;;5.28;2.22;;;18.30;80.10;;;;;;5051559;28;20056;-71
2022/10/04 12:11:23;;;;;;;5.25;2.08;;;18.20;80.10;;;;;;5051695;28;20421;-71
2022/10/04 12:13:51;;;;;;;6.18;2.47;;;18.30;80.10;;;;;;5013766;28;20044;-71
2022/10/04 12:16:30;;;;;;;4.32;2.10;;;18.30;80.20;;;;;;5011544;28;20528;-70
2022/10/04 12:18:58;;;;;;;5.20;2.10;;;18.30;80.10;;;;;;5011803;28;20048;-70
2022/10/04 12:21:51;;;;;;;4.78;1.83;;;18.30;80.10;;;;;;5042923;28;20507;-70
2022/10/04 12:24:17;;;;;;;;;;;18.30;80.10;;;;;;5068966;28;20126;-70
2022/10/04 12:26:54;;;;;;;5.03;1.85;;;18.20;80.00;;;;;;5114235;28;19994;-71
2022/10/04 12:29:35;;;;;;;7.57;2.55;;;18.20;80.00;;;;;;5095693;28;20023;-71
2022/10/04 12:32:32;;;;;;;5.05;1.98;;;18.20;80.00;;;;;;5113982;28;20035;-70
2022/10/04 12:35:13;;;;;;;4.25;1.63;;;18.30;80.10;;;;;;5101517;28;20039;-70
2022/10/04 12:38:07;;;;;;;3.90;1.42;;;18.20;80.00;;;;;;5113675;28;20024;-70
2022/10/04 12:40:54;;;;;;;6.15;2.13;;;18.30;80.10;;;;;;5112587;28;20020;-71
2022/10/04 12:43:33;;;;;;;4.78;1.83;;;18.30;80.00;;;;;;5112125;28;20069;-70
2022/10/04 12:46:14;;;;;;;4.57;1.73;;;18.30;80.10;;;;;;5113905;28;20492;-70
2022/10/04 12:49:02;;;;;;;4.88;1.98;;;18.30;80.10;;;;;;5112518;28;20470;-71
2022/10/04 12:51:31;;;;;;;4.07;1.50;;;18.30;80.10;;;;;;5112253;28;20044;-70
2022/10/04 12:54:15;;;;;;;5.82;1.90;;;18.30;80.10;;;;;;5113479;28;20042;-70
2022/10/04 12:56:51;;;;;;;2.90;1.77;;;18.30;80.10;;;;;;5113232;28;20020;-71
2022/10/04 12:59:36;;;;;;;3.13;1.70;;;18.30;80.10;;;;;;5112072;28;20043;-71
2022/10/04 13:02:27;;;;;;;4.63;2.15;;;18.30;80.00;;;;;;5112197;28;20489;-70
2022/10/04 13:05:11;;;;;;;6.50;1.90;;;18.30;80.00;;;;;;5112044;28;20048;-70
2022/10/04 13:08:06;;;;;;;4.80;1.55;;;18.30;80.00;;;;;;5112122;28;20090;-71
2022/10/04 13:10:34;;;;;;;5.22;1.70;;;18.20;80.00;;;;;;5111892;28;20020;-70
2022/10/04 13:13:31;;;;;;;5.28;1.65;;;18.30;80.10;;;;;;5100474;28;20024;-70
2022/10/04 13:16:21;;;;;;;3.63;1.60;;;18.30;80.00;;;;;;5091743;28;20101;-71
2022/10/04 13:19:06;;;;;;;5.75;1.92;;;18.30;80.10;;;;;;5092725;28;20016;-71
2022/10/04 13:22:01;;;;;;;6.53;1.88;;;18.30;80.00;;;;;;5109793;28;20028;-70
2022/10/04 13:24:59;;;;;;;3.83;1.92;;;18.30;80.00;;;;;;5112921;28;20384;-71
2022/10/04 13:27:48;;;;;;;4.45;1.80;;;18.30;80.00;;;;;;5112702;28;20035;-70
2022/10/04 13:30:28;;;;;;;3.50;1.40;;;18.20;79.90;;;;;;5097532;28;20474;-70
2022/10/04 13:33:25;;;;;;;2.15;1.48;;;18.20;79.90;;;;;;5095579;28;20030;-71
2022/10/04 13:36:15;;;;;;;2.70;1.50;;;18.30;80.00;;;;;;5111603;28;20106;-70
2022/10/04 13:38:56;;;;;;;4.65;2.00;;;18.30;80.00;;;;;;5095439;28;20031;-70
2022/10/04 13:42:01;;;;;;;3.05;1.60;;;18.20;80.00;;;;;;5111352;28;20008;-71
2022/10/04 13:44:33;;;;;;;2.83;1.42;;;18.30;80.00;;;;;;5033421;28;20037;-71
2022/10/04 13:47:03;;;;;;;5.93;1.90;;;18.20;79.90;;;;;;5051637;28;20024;-70
2022/10/04 13:49:51;;;;;;;4.53;1.70;;;18.30;80.00;;;;;;5054331;28;20057;-71
2022/10/04 13:58:41;;;;;;;4.25;1.85;;;18.30;80.00;;;;;;5039968;28;20031;-70
2022/10/04 14:01:36;;;;;;;4.57;1.70;;;18.20;79.90;;;;;;5037374;28;20364;-71